sensor_id;sensor_type;location;lat;lon;timestamp;pressure;altitude;pressure_sealevel;temperature
61703;BMP280;47622;47.726;3.298;2023-11-21T00:01:16;98749.59;;;9.48
61703;BMP280;47622;47.726;3.298;2023-11-21T00:03:42;98752.06;;;9.53
61703;BMP280;47622;47.726;3.298;2023-11-21T00:06:09;98753.25;;;9.46
61703;BMP280;47622;47.726;3.298;2023-11-21T00:08:35;98737.75;;;9.50
61703;BMP280;47622;47.726;3.298;2023-11-21T00:11:00;98737.06;;;9.44
61703;BMP280;47622;47.726;3.298;2023-11-21T00:13:26;98746.00;;;9.43
61703;BMP280;47622;47.726;3.298;2023-11-21T00:15:52;98751.38;;;9.38
61703;BMP280;47622;47.726;3.298;2023-11-21T00:18:18;98756.16;;;9.45
61703;BMP280;47622;47.726;3.298;2023-11-21T00:20:43;98763.69;;;9.38
61703;BMP280;47622;47.726;3.298;2023-11-21T00:23:09;98766.28;;;9.38
61703;BMP280;47622;47.726;3.298;2023-11-21T00:25:34;98758.44;;;9.38
61703;BMP280;47622;47.726;3.298;2023-11-21T00:28:00;98752.72;;;9.36
61703;BMP280;47622;47.726;3.298;2023-11-21T00:30:27;98750.22;;;9.31
61703;BMP280;47622;47.726;3.298;2023-11-21T00:32:54;98759.94;;;9.30
61703;BMP280;47622;47.726;3.298;2023-11-21T00:35:19;98761.19;;;9.33
61703;BMP280;47622;47.726;3.298;2023-11-21T00:37:45;98761.78;;;9.30
61703;BMP280;47622;47.726;3.298;2023-11-21T00:40:12;98760.56;;;9.36
61703;BMP280;47622;47.726;3.298;2023-11-21T00:42:38;98762.41;;;9.35
61703;BMP280;47622;47.726;3.298;2023-11-21T00:45:05;98759.03;;;9.35
61703;BMP280;47622;47.726;3.298;2023-11-21T00:47:31;98753.34;;;9.33
61703;BMP280;47622;47.726;3.298;2023-11-21T00:49:56;98757.19;;;9.35
61703;BMP280;47622;47.726;3.298;2023-11-21T00:52:22;98753.69;;;9.40
61703;BMP280;47622;47.726;3.298;2023-11-21T00:54:47;98752.13;;;9.39
61703;BMP280;47622;47.726;3.298;2023-11-21T00:57:14;98762.94;;;9.46
61703;BMP280;47622;47.726;3.298;2023-11-21T00:59:39;98758.00;;;9.44
61703;BMP280;47622;47.726;3.298;2023-11-21T01:02:05;98758.91;;;9.40
61703;BMP280;47622;47.726;3.298;2023-11-21T01:04:30;98753.69;;;9.40
61703;BMP280;47622;47.726;3.298;2023-11-21T01:06:57;98748.81;;;9.47
61703;BMP280;47622;47.726;3.298;2023-11-21T01:09:23;98768.19;;;9.46
61703;BMP280;47622;47.726;3.298;2023-11-21T01:11:49;98757.13;;;9.49
61703;BMP280;47622;47.726;3.298;2023-11-21T01:14:14;98762.84;;;9.51
61703;BMP280;47622;47.726;3.298;2023-11-21T01:16:40;98758.44;;;9.60
61703;BMP280;47622;47.726;3.298;2023-11-21T01:19:06;98757.13;;;9.49
61703;BMP280;47622;47.726;3.298;2023-11-21T01:21:32;98758.69;;;9.50
61703;BMP280;47622;47.726;3.298;2023-11-21T01:23:57;98754.97;;;9.51
61703;BMP280;47622;47.726;3.298;2023-11-21T01:26:24;98758.31;;;9.43
61703;BMP280;47622;47.726;3.298;2023-11-21T01:28:49;98751.66;;;9.37
61703;BMP280;47622;47.726;3.298;2023-11-21T01:31:15;98753.69;;;9.40
61703;BMP280;47622;47.726;3.298;2023-11-21T01:33:41;98756.66;;;9.47
61703;BMP280;47622;47.726;3.298;2023-11-21T01:36:30;98760.22;;;9.51
61703;BMP280;47622;47.726;3.298;2023-11-21T01:38:57;98765.44;;;9.51
61703;BMP280;47622;47.726;3.298;2023-11-21T01:41:26;98764.91;;;9.40
61703;BMP280;47622;47.726;3.298;2023-11-21T01:43:52;98773.06;;;9.39
61703;BMP280;47622;47.726;3.298;2023-11-21T01:46:19;98770.94;;;9.41
61703;BMP280;47622;47.726;3.298;2023-11-21T01:48:46;98766.56;;;9.36
61703;BMP280;47622;47.726;3.298;2023-11-21T01:51:12;98767.84;;;9.39
61703;BMP280;47622;47.726;3.298;2023-11-21T01:53:39;98764.91;;;9.40
61703;BMP280;47622;47.726;3.298;2023-11-21T01:56:05;98761.94;;;9.33
61703;BMP280;47622;47.726;3.298;2023-11-21T01:58:33;98766.22;;;9.29
61703;BMP280;47622;47.726;3.298;2023-11-21T02:00:59;98765.78;;;9.36
61703;BMP280;47622;47.726;3.298;2023-11-21T02:03:24;98754.28;;;9.37
61703;BMP280;47622;47.726;3.298;2023-11-21T02:05:52;98749.19;;;9.32
61703;BMP280;47622;47.726;3.298;2023-11-21T02:08:19;98754.28;;;9.37
61703;BMP280;47622;47.726;3.298;2023-11-21T02:10:46;98763.19;;;9.36
61703;BMP280;47622;47.726;3.298;2023-11-21T02:13:13;98769.38;;;9.40
61703;BMP280;47622;47.726;3.298;2023-11-21T02:15:38;98762.78;;;9.42
61703;BMP280;47622;47.726;3.298;2023-11-21T02:18:04;98764.75;;;9.37
61703;BMP280;47622;47.726;3.298;2023-11-21T02:20:32;98758.19;;;9.26
61703;BMP280;47622;47.726;3.298;2023-11-21T02:23:00;98756.19;;;9.23
61703;BMP280;47622;47.726;3.298;2023-11-21T02:25:28;98763.41;;;9.26
61703;BMP280;47622;47.726;3.298;2023-11-21T02:27:54;98752.94;;;9.26
61703;BMP280;47622;47.726;3.298;2023-11-21T02:30:21;98759.88;;;9.22
61703;BMP280;47622;47.726;3.298;2023-11-21T02:32:48;98759.38;;;9.20
61703;BMP280;47622;47.726;3.298;2023-11-21T02:35:14;98762.28;;;9.32
61703;BMP280;47622;47.726;3.298;2023-11-21T02:37:41;98754.34;;;9.23
61703;BMP280;47622;47.726;3.298;2023-11-21T02:40:09;98759.44;;;9.28
61703;BMP280;47622;47.726;3.298;2023-11-21T02:42:38;98766.72;;;9.31
61703;BMP280;47622;47.726;3.298;2023-11-21T02:45:05;98761.44;;;9.23
61703;BMP280;47622;47.726;3.298;2023-11-21T02:47:31;98763.41;;;9.26
61703;BMP280;47622;47.726;3.298;2023-11-21T02:49:57;98763.41;;;9.26
61703;BMP280;47622;47.726;3.298;2023-11-21T02:52:22;98764.81;;;9.23
61703;BMP280;47622;47.726;3.298;2023-11-21T02:54:48;98767.22;;;9.20
61703;BMP280;47622;47.726;3.298;2023-11-21T02:57:15;98760.97;;;9.21
61703;BMP280;47622;47.726;3.298;2023-11-21T02:59:41;98764.44;;;9.16
61703;BMP280;47622;47.726;3.298;2023-11-21T03:02:06;98769.50;;;9.12
61703;BMP280;47622;47.726;3.298;2023-11-21T03:04:34;98769.50;;;9.12
61703;BMP280;47622;47.726;3.298;2023-11-21T03:07:00;98770.06;;;9.09
61703;BMP280;47622;47.726;3.298;2023-11-21T03:09:26;98773.97;;;9.12
61703;BMP280;47622;47.726;3.298;2023-11-21T03:11:55;98774.13;;;9.15
61703;BMP280;47622;47.726;3.298;2023-11-21T03:14:21;98771.03;;;9.13
61703;BMP280;47622;47.726;3.298;2023-11-21T03:16:48;98776.44;;;9.17
61703;BMP280;47622;47.726;3.298;2023-11-21T03:19:14;98775.84;;;9.20
61703;BMP280;47622;47.726;3.298;2023-11-21T03:21:40;98779.84;;;9.17
61703;BMP280;47622;47.726;3.298;2023-11-21T03:24:06;98774.75;;;9.12
61703;BMP280;47622;47.726;3.298;2023-11-21T03:26:32;98780.53;;;9.09
61703;BMP280;47622;47.726;3.298;2023-11-21T03:28:58;98788.38;;;9.09
61703;BMP280;47622;47.726;3.298;2023-11-21T03:31:23;98790.53;;;9.07
61703;BMP280;47622;47.726;3.298;2023-11-21T03:33:49;98791.38;;;9.16
61703;BMP280;47622;47.726;3.298;2023-11-21T03:36:14;98799.50;;;9.15
61703;BMP280;47622;47.726;3.298;2023-11-21T03:38:41;98789.97;;;9.10
61703;BMP280;47622;47.726;3.298;2023-11-21T03:41:07;98802.06;;;9.06
61703;BMP280;47622;47.726;3.298;2023-11-21T03:43:36;98806.22;;;9.07
61703;BMP280;47622;47.726;3.298;2023-11-21T03:46:02;98798.38;;;9.07
61703;BMP280;47622;47.726;3.298;2023-11-21T03:48:28;98817.16;;;9.09
61703;BMP280;47622;47.726;3.298;2023-11-21T03:50:53;98812.91;;;9.13
61703;BMP280;47622;47.726;3.298;2023-11-21T03:53:19;98815.47;;;9.05
61703;BMP280;47622;47.726;3.298;2023-11-21T03:55:44;98808.66;;;9.04
61703;BMP280;47622;47.726;3.298;2023-11-21T03:58:10;98812.63;;;9.01
61703;BMP280;47622;47.726;3.298;2023-11-21T04:00:35;98812.22;;;9.08
61703;BMP280;47622;47.726;3.298;2023-11-21T04:03:01;98818.53;;;9.07
61703;BMP280;47622;47.726;3.298;2023-11-21T04:05:26;98816.69;;;9.07
61703;BMP280;47622;47.726;3.298;2023-11-21T04:07:52;98804.78;;;9.01
61703;BMP280;47622;47.726;3.298;2023-11-21T04:10:17;98819.88;;;9.04
61703;BMP280;47622;47.726;3.298;2023-11-21T04:12:43;98818.34;;;9.03
61703;BMP280;47622;47.726;3.298;2023-11-21T04:15:10;98815.25;;;9.01
61703;BMP280;47622;47.726;3.298;2023-11-21T04:17:37;98811.91;;;9.09
61703;BMP280;47622;47.726;3.298;2023-11-21T04:20:04;98812.72;;;9.10
61703;BMP280;47622;47.726;3.298;2023-11-21T04:22:36;98817.53;;;9.16
61703;BMP280;47622;47.726;3.298;2023-11-21T04:25:01;98810.97;;;9.05
61703;BMP280;47622;47.726;3.298;2023-11-21T04:27:27;98822.97;;;9.06
61703;BMP280;47622;47.726;3.298;2023-11-21T04:29:53;98822.81;;;9.03
61703;BMP280;47622;47.726;3.298;2023-11-21T04:32:18;98828.81;;;9.03
61703;BMP280;47622;47.726;3.298;2023-11-21T04:34:44;98822.38;;;9.09
61703;BMP280;47622;47.726;3.298;2023-11-21T04:37:09;98824.88;;;9.14
61703;BMP280;47622;47.726;3.298;2023-11-21T04:39:35;98830.22;;;9.09
61703;BMP280;47622;47.726;3.298;2023-11-21T04:42:01;98822.50;;;9.04
61703;BMP280;47622;47.726;3.298;2023-11-21T04:44:27;98833.66;;;9.10
61703;BMP280;47622;47.726;3.298;2023-11-21T04:46:53;98832.50;;;9.02
61703;BMP280;47622;47.726;3.298;2023-11-21T04:49:18;98836.16;;;9.01
61703;BMP280;47622;47.726;3.298;2023-11-21T04:51:43;98835.69;;;8.99
61703;BMP280;47622;47.726;3.298;2023-11-21T04:54:10;98830.47;;;8.99
61703;BMP280;47622;47.726;3.298;2023-11-21T04:56:36;98827.56;;;8.87
61703;BMP280;47622;47.726;3.298;2023-11-21T04:59:01;98831.63;;;8.93
61703;BMP280;47622;47.726;3.298;2023-11-21T05:01:27;98836.94;;;8.88
61703;BMP280;47622;47.726;3.298;2023-11-21T05:03:52;98844.88;;;8.97
61703;BMP280;47622;47.726;3.298;2023-11-21T05:06:18;98845.66;;;8.97
61703;BMP280;47622;47.726;3.298;2023-11-21T05:08:43;98841.03;;;8.94
61703;BMP280;47622;47.726;3.298;2023-11-21T05:11:09;98850.41;;;8.95
61703;BMP280;47622;47.726;3.298;2023-11-21T05:13:36;98854.00;;;8.99
61703;BMP280;47622;47.726;3.298;2023-11-21T05:16:02;98850.50;;;9.04
61703;BMP280;47622;47.726;3.298;2023-11-21T05:18:30;98845.84;;;9.01
61703;BMP280;47622;47.726;3.298;2023-11-21T05:20:56;98856.69;;;9.08
61703;BMP280;47622;47.726;3.298;2023-11-21T05:23:22;98862.19;;;9.06
61703;BMP280;47622;47.726;3.298;2023-11-21T05:25:47;98860.56;;;8.97
61703;BMP280;47622;47.726;3.298;2023-11-21T05:28:13;98870.72;;;8.98
61703;BMP280;47622;47.726;3.298;2023-11-21T05:30:38;98870.25;;;8.96
61703;BMP280;47622;47.726;3.298;2023-11-21T05:33:05;98871.31;;;8.95
61703;BMP280;47622;47.726;3.298;2023-11-21T05:35:31;98870.25;;;8.96
61703;BMP280;47622;47.726;3.298;2023-11-21T05:37:56;98875.03;;;8.94
61703;BMP280;47622;47.726;3.298;2023-11-21T05:40:22;98884.41;;;8.95
61703;BMP280;47622;47.726;3.298;2023-11-21T05:42:48;98890.72;;;8.94
61703;BMP280;47622;47.726;3.298;2023-11-21T05:45:14;98882.88;;;8.94
61703;BMP280;47622;47.726;3.298;2023-11-21T05:47:45;98888.19;;;8.89
61703;BMP280;47622;47.726;3.298;2023-11-21T05:50:13;98889.75;;;8.90
61703;BMP280;47622;47.726;3.298;2023-11-21T05:52:43;98901.44;;;8.93
61703;BMP280;47622;47.726;3.298;2023-11-21T05:55:09;98903.78;;;8.94
61703;BMP280;47622;47.726;3.298;2023-11-21T05:57:39;98905.91;;;8.92
61703;BMP280;47622;47.726;3.298;2023-11-21T06:00:06;98906.50;;;8.89
61703;BMP280;47622;47.726;3.298;2023-11-21T06:02:40;98909.47;;;8.96
61703;BMP280;47622;47.726;3.298;2023-11-21T06:05:10;98909.28;;;8.93
61703;BMP280;47622;47.726;3.298;2023-11-21T06:07:37;98909.59;;;8.91
61703;BMP280;47622;47.726;3.298;2023-11-21T06:10:04;98922.66;;;8.91
61703;BMP280;47622;47.726;3.298;2023-11-21T06:12:32;98916.34;;;8.92
61703;BMP280;47622;47.726;3.298;2023-11-21T06:15:02;98928.34;;;8.93
61703;BMP280;47622;47.726;3.298;2023-11-21T06:17:30;98925.28;;;8.91
61703;BMP280;47622;47.726;3.298;2023-11-21T06:19:56;98916.94;;;8.89
61703;BMP280;47622;47.726;3.298;2023-11-21T06:22:22;98926.34;;;8.90
61703;BMP280;47622;47.726;3.298;2023-11-21T06:24:47;98927.97;;;8.86
61703;BMP280;47622;47.726;3.298;2023-11-21T06:27:13;98933.59;;;8.79
61703;BMP280;47622;47.726;3.298;2023-11-21T06:29:38;98932.41;;;8.85
61703;BMP280;47622;47.726;3.298;2023-11-21T06:32:04;98935.34;;;8.84
61703;BMP280;47622;47.726;3.298;2023-11-21T06:34:30;98933.78;;;8.83
61703;BMP280;47622;47.726;3.298;2023-11-21T06:36:56;98944.75;;;8.85
61703;BMP280;47622;47.726;3.298;2023-11-21T06:39:22;98935.13;;;8.80
61703;BMP280;47622;47.726;3.298;2023-11-21T06:41:49;98949.09;;;8.90
61703;BMP280;47622;47.726;3.298;2023-11-21T06:44:15;98940.06;;;8.82
61703;BMP280;47622;47.726;3.298;2023-11-21T06:46:40;98944.59;;;8.76
61703;BMP280;47622;47.726;3.298;2023-11-21T06:49:08;98946.59;;;8.84
61703;BMP280;47622;47.726;3.298;2023-11-21T06:51:33;98950.34;;;8.92
61703;BMP280;47622;47.726;3.298;2023-11-21T06:53:59;98947.34;;;8.85
61703;BMP280;47622;47.726;3.298;2023-11-21T06:56:24;98941.91;;;8.81
61703;BMP280;47622;47.726;3.298;2023-11-21T06:58:50;98940.16;;;8.77
61703;BMP280;47622;47.726;3.298;2023-11-21T07:01:19;98948.09;;;8.72
61703;BMP280;47622;47.726;3.298;2023-11-21T07:03:44;98957.38;;;8.78
61703;BMP280;47622;47.726;3.298;2023-11-21T07:06:10;98961.84;;;8.77
61703;BMP280;47622;47.726;3.298;2023-11-21T07:08:37;98975.19;;;8.76
61703;BMP280;47622;47.726;3.298;2023-11-21T07:11:03;98984.03;;;8.80
61703;BMP280;47622;47.726;3.298;2023-11-21T07:13:29;98975.41;;;8.79
61703;BMP280;47622;47.726;3.298;2023-11-21T07:15:55;98987.03;;;8.87
61703;BMP280;47622;47.726;3.298;2023-11-21T07:18:20;98986.47;;;8.90
61703;BMP280;47622;47.726;3.298;2023-11-21T07:20:46;98982.78;;;8.91
61703;BMP280;47622;47.726;3.298;2023-11-21T07:23:11;98995.38;;;8.89
61703;BMP280;47622;47.726;3.298;2023-11-21T07:25:37;98984.84;;;8.94
61703;BMP280;47622;47.726;3.298;2023-11-21T07:28:02;98997.41;;;8.92
61703;BMP280;47622;47.726;3.298;2023-11-21T07:30:28;99002.53;;;8.97
61703;BMP280;47622;47.726;3.298;2023-11-21T07:32:54;98997.53;;;9.01
61703;BMP280;47622;47.726;3.298;2023-11-21T07:35:19;99002.75;;;9.01
61703;BMP280;47622;47.726;3.298;2023-11-21T07:37:45;99008.75;;;9.01
61703;BMP280;47622;47.726;3.298;2023-11-21T07:40:12;99004.47;;;9.05
61703;BMP280;47622;47.726;3.298;2023-11-21T07:42:38;99012.03;;;9.07
61703;BMP280;47622;47.726;3.298;2023-11-21T07:45:05;99020.19;;;9.05
61703;BMP280;47622;47.726;3.298;2023-11-21T07:47:32;99023.28;;;9.07
61703;BMP280;47622;47.726;3.298;2023-11-21T07:50:00;99030.63;;;9.05
61703;BMP280;47622;47.726;3.298;2023-11-21T07:52:28;99032.78;;;9.03
61703;BMP280;47622;47.726;3.298;2023-11-21T07:54:53;99023.84;;;9.04
61703;BMP280;47622;47.726;3.298;2023-11-21T07:57:19;99031.72;;;9.04
61703;BMP280;47622;47.726;3.298;2023-11-21T07:59:44;99031.22;;;9.02
61703;BMP280;47622;47.726;3.298;2023-11-21T08:02:10;99027.06;;;9.01
61703;BMP280;47622;47.726;3.298;2023-11-21T08:04:35;99018.41;;;9.14
61703;BMP280;47622;47.726;3.298;2023-11-21T08:07:01;99025.41;;;9.05
61703;BMP280;47622;47.726;3.298;2023-11-21T08:09:27;99027.34;;;9.13
61703;BMP280;47622;47.726;3.298;2023-11-21T08:11:53;99028.22;;;9.09
61703;BMP280;47622;47.726;3.298;2023-11-21T08:14:18;99042.53;;;9.25
61703;BMP280;47622;47.726;3.298;2023-11-21T08:16:45;99054.47;;;9.17
61703;BMP280;47622;47.726;3.298;2023-11-21T08:19:11;99056.53;;;9.21
61703;BMP280;47622;47.726;3.298;2023-11-21T08:21:37;99059.22;;;9.15
61703;BMP280;47622;47.726;3.298;2023-11-21T08:24:07;99060.47;;;9.18
61703;BMP280;47622;47.726;3.298;2023-11-21T08:26:36;99054.84;;;9.25
61703;BMP280;47622;47.726;3.298;2023-11-21T08:29:02;99065.31;;;9.25
61703;BMP280;47622;47.726;3.298;2023-11-21T08:31:27;99060.69;;;9.22
61703;BMP280;47622;47.726;3.298;2023-11-21T08:33:54;99066.78;;;9.31
61703;BMP280;47622;47.726;3.298;2023-11-21T08:36:21;99069.03;;;9.37
61703;BMP280;47622;47.726;3.298;2023-11-21T08:38:49;99061.47;;;9.50
61703;BMP280;47622;47.726;3.298;2023-11-21T08:41:17;99065.75;;;9.59
61703;BMP280;47622;47.726;3.298;2023-11-21T08:43:43;99066.00;;;9.71
61703;BMP280;47622;47.726;3.298;2023-11-21T08:46:10;99064.91;;;9.72
61703;BMP280;47622;47.726;3.298;2023-11-21T08:48:36;99067.66;;;9.67
61703;BMP280;47622;47.726;3.298;2023-11-21T08:51:02;99073.09;;;9.57
61703;BMP280;47622;47.726;3.298;2023-11-21T08:53:29;99063.56;;;9.61
61703;BMP280;47622;47.726;3.298;2023-11-21T08:55:54;99057.38;;;9.57
61703;BMP280;47622;47.726;3.298;2023-11-21T08:58:20;99070.28;;;9.67
61703;BMP280;47622;47.726;3.298;2023-11-21T09:00:45;99061.81;;;9.70
61703;BMP280;47622;47.726;3.298;2023-11-21T09:03:12;99061.03;;;9.84
61703;BMP280;47622;47.726;3.298;2023-11-21T09:05:38;99061.41;;;9.91
61703;BMP280;47622;47.726;3.298;2023-11-21T09:08:05;99053.44;;;9.96
61703;BMP280;47622;47.726;3.298;2023-11-21T09:10:30;99043.06;;;9.91
61703;BMP280;47622;47.726;3.298;2023-11-21T09:12:56;99050.34;;;9.94
61703;BMP280;47622;47.726;3.298;2023-11-21T09:15:22;99053.22;;;10.06
61703;BMP280;47622;47.726;3.298;2023-11-21T09:17:47;99048.94;;;10.10
61703;BMP280;47622;47.726;3.298;2023-11-21T09:20:14;99057.63;;;10.19
61703;BMP280;47622;47.726;3.298;2023-11-21T09:22:40;99061.47;;;10.13
61703;BMP280;47622;47.726;3.298;2023-11-21T09:25:06;99072.88;;;10.17
61703;BMP280;47622;47.726;3.298;2023-11-21T09:27:34;99076.19;;;10.31
61703;BMP280;47622;47.726;3.298;2023-11-21T09:30:01;99079.59;;;10.10
61703;BMP280;47622;47.726;3.298;2023-11-21T09:32:27;99080.88;;;9.98
61703;BMP280;47622;47.726;3.298;2023-11-21T09:34:53;99085.66;;;9.83
61703;BMP280;47622;47.726;3.298;2023-11-21T09:37:23;99094.03;;;9.85
61703;BMP280;47622;47.726;3.298;2023-11-21T09:39:48;99090.09;;;9.96
61703;BMP280;47622;47.726;3.298;2023-11-21T09:42:23;99100.28;;;10.11
61703;BMP280;47622;47.726;3.298;2023-11-21T09:47:30;99093.25;;;10.20
61703;BMP280;47622;47.726;3.298;2023-11-21T09:49:56;99100.88;;;10.30
61703;BMP280;47622;47.726;3.298;2023-11-21T09:52:25;99094.78;;;10.21
61703;BMP280;47622;47.726;3.298;2023-11-21T09:54:52;99115.47;;;10.23
61703;BMP280;47622;47.726;3.298;2023-11-21T09:57:26;99109.13;;;10.38
61703;BMP280;47622;47.726;3.298;2023-11-21T09:59:54;99116.63;;;10.53
61703;BMP280;47622;47.726;3.298;2023-11-21T10:02:27;99117.69;;;10.52
61703;BMP280;47622;47.726;3.298;2023-11-21T10:04:59;99117.00;;;10.38
61703;BMP280;47622;47.726;3.298;2023-11-21T10:07:26;99123.38;;;10.31
61703;BMP280;47622;47.726;3.298;2023-11-21T10:09:53;99135.22;;;10.43
61703;BMP280;47622;47.726;3.298;2023-11-21T10:12:19;99128.41;;;10.42
61703;BMP280;47622;47.726;3.298;2023-11-21T10:14:49;99126.41;;;10.61
61703;BMP280;47622;47.726;3.298;2023-11-21T10:17:15;99124.25;;;10.63
61703;BMP280;47622;47.726;3.298;2023-11-21T10:19:46;99127.34;;;10.65
61703;BMP280;47622;47.726;3.298;2023-11-21T10:22:13;99136.41;;;10.81
61703;BMP280;47622;47.726;3.298;2023-11-21T10:24:40;99130.38;;;10.81
61703;BMP280;47622;47.726;3.298;2023-11-21T10:27:05;99131.16;;;10.81
61703;BMP280;47622;47.726;3.298;2023-11-21T10:29:31;99132.41;;;10.84
61703;BMP280;47622;47.726;3.298;2023-11-21T10:32:02;99131.75;;;10.78
61703;BMP280;47622;47.726;3.298;2023-11-21T10:34:27;99139.84;;;10.90
61703;BMP280;47622;47.726;3.298;2023-11-21T10:36:53;99136.50;;;10.99
61703;BMP280;47622;47.726;3.298;2023-11-21T10:39:20;99119.94;;;10.89
61703;BMP280;47622;47.726;3.298;2023-11-21T10:41:48;99129.97;;;10.87
61703;BMP280;47622;47.726;3.298;2023-11-21T10:44:15;99127.69;;;10.94
61703;BMP280;47622;47.726;3.298;2023-11-21T10:46:51;99130.38;;;11.03
61703;BMP280;47622;47.726;3.298;2023-11-21T10:49:20;99123.59;;;11.11
61703;BMP280;47622;47.726;3.298;2023-11-21T10:51:46;99123.81;;;11.23
61703;BMP280;47622;47.726;3.298;2023-11-21T10:54:18;99121.22;;;11.32
61703;BMP280;47622;47.726;3.298;2023-11-21T10:56:45;99120.03;;;11.07
61703;BMP280;47622;47.726;3.298;2023-11-21T10:59:12;99120.03;;;11.07
61703;BMP280;47622;47.726;3.298;2023-11-21T11:01:42;99116.94;;;11.05
61703;BMP280;47622;47.726;3.298;2023-11-21T11:04:11;99119.75;;;11.17
61703;BMP280;47622;47.726;3.298;2023-11-21T11:06:45;99119.03;;;11.25
61703;BMP280;47622;47.726;3.298;2023-11-21T11:09:15;99118.06;;;11.21
61703;BMP280;47622;47.726;3.298;2023-11-21T11:11:42;99113.47;;;11.18
61703;BMP280;47622;47.726;3.298;2023-11-21T11:14:11;99110.34;;;11.16
61703;BMP280;47622;47.726;3.298;2023-11-21T11:16:39;99128.78;;;11.24
61703;BMP280;47622;47.726;3.298;2023-11-21T11:19:09;99125.69;;;11.22
61703;BMP280;47622;47.726;3.298;2023-11-21T11:33:14;99118.34;;;11.11
61703;BMP280;47622;47.726;3.298;2023-11-21T11:38:32;99125.50;;;11.19
61703;BMP280;47622;47.726;3.298;2023-11-21T11:41:01;99133.38;;;11.27
61703;BMP280;47622;47.726;3.298;2023-11-21T11:43:28;99133.56;;;11.22
61703;BMP280;47622;47.726;3.298;2023-11-21T11:45:58;99133.19;;;11.15
61703;BMP280;47622;47.726;3.298;2023-11-21T11:48:28;99134.31;;;11.23
61703;BMP280;47622;47.726;3.298;2023-11-21T11:51:02;99132.88;;;11.17
61703;BMP280;47622;47.726;3.298;2023-11-21T11:53:36;99128.69;;;11.07
61703;BMP280;47622;47.726;3.298;2023-11-21T11:56:27;99124.16;;;10.99
61703;BMP280;47622;47.726;3.298;2023-11-21T11:59:00;99121.94;;;11.15
61703;BMP280;47622;47.726;3.298;2023-11-21T12:01:28;99113.50;;;11.35
61703;BMP280;47622;47.726;3.298;2023-11-21T12:06:57;99112.06;;;11.60
61703;BMP280;47622;47.726;3.298;2023-11-21T12:09:26;99111.84;;;11.48
61703;BMP280;47622;47.726;3.298;2023-11-21T12:11:52;99118.00;;;11.43
61703;BMP280;47622;47.726;3.298;2023-11-21T12:14:20;99110.00;;;11.40
61703;BMP280;47622;47.726;3.298;2023-11-21T12:16:45;99122.88;;;11.27
61703;BMP280;47622;47.726;3.298;2023-11-21T12:19:12;99116.59;;;11.37
61703;BMP280;47622;47.726;3.298;2023-11-21T12:21:38;99113.81;;;11.42
61703;BMP280;47622;47.726;3.298;2023-11-21T12:24:07;99111.34;;;11.37
61703;BMP280;47622;47.726;3.298;2023-11-21T12:26:39;99122.06;;;11.10
61703;BMP280;47622;47.726;3.298;2023-11-21T12:29:05;99124.53;;;11.15
61703;BMP280;47622;47.726;3.298;2023-11-21T12:31:33;99122.88;;;11.27
61703;BMP280;47622;47.726;3.298;2023-11-21T12:33:59;99125.84;;;11.26
61703;BMP280;47622;47.726;3.298;2023-11-21T12:36:25;99127.56;;;11.31
61703;BMP280;47622;47.726;3.298;2023-11-21T12:38:51;99135.47;;;11.08
61703;BMP280;47622;47.726;3.298;2023-11-21T12:41:17;99139.59;;;11.01
61703;BMP280;47622;47.726;3.298;2023-11-21T12:43:43;99136.03;;;10.96
61703;BMP280;47622;47.726;3.298;2023-11-21T12:46:10;99142.47;;;10.68
61703;BMP280;47622;47.726;3.298;2023-11-21T12:48:39;99144.41;;;10.76
61703;BMP280;47622;47.726;3.298;2023-11-21T12:51:09;99142.25;;;10.78
61703;BMP280;47622;47.726;3.298;2023-11-21T12:53:40;99132.69;;;10.82
61703;BMP280;47622;47.726;3.298;2023-11-21T12:56:07;99140.91;;;10.89
61703;BMP280;47622;47.726;3.298;2023-11-21T12:58:35;99133.25;;;10.93
61703;BMP280;47622;47.726;3.298;2023-11-21T13:01:01;99139.59;;;11.01
61703;BMP280;47622;47.726;3.298;2023-11-21T13:03:31;99131.41;;;10.93
61703;BMP280;47622;47.726;3.298;2023-11-21T13:05:58;99133.72;;;10.95
61703;BMP280;47622;47.726;3.298;2023-11-21T13:08:25;99130.47;;;10.98
61703;BMP280;47622;47.726;3.298;2023-11-21T13:10:55;99134.91;;;11.20
61703;BMP280;47622;47.726;3.298;2023-11-21T13:13:22;99137.47;;;11.34
61703;BMP280;47622;47.726;3.298;2023-11-21T13:15:56;99138.28;;;11.12
61703;BMP280;47622;47.726;3.298;2023-11-21T13:18:25;99135.38;;;11.22
61703;BMP280;47622;47.726;3.298;2023-11-21T13:20:58;99146.38;;;11.24
61703;BMP280;47622;47.726;3.298;2023-11-21T13:23:24;99151.00;;;11.27
61703;BMP280;47622;47.726;3.298;2023-11-21T13:25:51;99145.28;;;11.25
61703;BMP280;47622;47.726;3.298;2023-11-21T13:28:17;99142.09;;;11.37
61703;BMP280;47622;47.726;3.298;2023-11-21T13:30:49;99148.47;;;11.44
61703;BMP280;47622;47.726;3.298;2023-11-21T13:33:17;99151.47;;;11.29
61703;BMP280;47622;47.726;3.298;2023-11-21T13:35:47;99147.53;;;11.09
61703;BMP280;47622;47.726;3.298;2023-11-21T13:38:16;99147.84;;;11.08
61703;BMP280;47622;47.726;3.298;2023-11-21T13:40:55;99159.75;;;11.14
61703;BMP280;47622;47.726;3.298;2023-11-21T13:43:24;99160.94;;;11.08
61703;BMP280;47622;47.726;3.298;2023-11-21T13:45:52;99162.84;;;11.16
61703;BMP280;47622;47.726;3.298;2023-11-21T13:48:28;99160.06;;;11.21
61703;BMP280;47622;47.726;3.298;2023-11-21T13:50:59;99162.28;;;10.96
61703;BMP280;47622;47.726;3.298;2023-11-21T13:53:36;99163.03;;;10.97
61703;BMP280;47622;47.726;3.298;2023-11-21T13:56:03;99162.94;;;11.02
61703;BMP280;47622;47.726;3.298;2023-11-21T13:58:29;99171.31;;;11.13
61703;BMP280;47622;47.726;3.298;2023-11-21T14:01:13;99167.50;;;11.19
61703;BMP280;47622;47.726;3.298;2023-11-21T14:04:03;99169.03;;;11.20
61703;BMP280;47622;47.726;3.298;2023-11-21T14:06:46;99170.56;;;11.21
61703;BMP280;47622;47.726;3.298;2023-11-21T14:09:21;99183.41;;;11.22
61703;BMP280;47622;47.726;3.298;2023-11-21T14:11:53;99185.13;;;11.27
61703;BMP280;47622;47.726;3.298;2023-11-21T14:14:24;99185.94;;;11.36
61703;BMP280;47622;47.726;3.298;2023-11-21T14:16:55;99190.03;;;11.20
61703;BMP280;47622;47.726;3.298;2023-11-21T14:19:22;99195.22;;;11.11
61703;BMP280;47622;47.726;3.298;2023-11-21T14:21:52;99200.19;;;11.13
61703;BMP280;47622;47.726;3.298;2023-11-21T14:24:18;99195.59;;;10.96
61703;BMP280;47622;47.726;3.298;2023-11-21T14:26:45;99208.03;;;10.90
61703;BMP280;47622;47.726;3.298;2023-11-21T14:29:12;99216.63;;;10.82
61703;BMP280;47622;47.726;3.298;2023-11-21T14:31:42;99213.94;;;10.74
61703;BMP280;47622;47.726;3.298;2023-11-21T14:34:08;99209.75;;;10.73
61703;BMP280;47622;47.726;3.298;2023-11-21T14:36:35;99212.63;;;10.62